Time;durP1;ratioP1;P1;durP2;ratioP2;P2;SDS_P1;SDS_P2;PMS_P1;PMS_P2;Temp;Humidity;BMP_temperature;BMP_pressure;BME280_temperature;BME280_humidity;BME280_pressure;Samples;Min_cycle;Max_cycle;Signal;HPM_P1;HPM_P2
2022/05/14 00:00:18;;;;;;;3.92;0.50;;;;;;;12.49;100.00;99161.31;1691480;83;21488;-50
2022/05/14 00:02:45;;;;;;;6.60;0.60;;;;;;;12.48;100.00;99162.28;1686789;83;21070;-51
2022/05/14 00:05:11;;;;;;;3.30;0.60;;;;;;;12.51;100.00;99151.26;1686313;83;21409;-50
2022/05/14 00:07:38;;;;;;;4.50;0.70;;;;;;;12.54;100.00;99139.87;1688549;83;21069;-51
2022/05/14 00:10:07;;;;;;;0.90;0.50;;;;;;;12.54;100.00;99143.94;1689706;83;21113;-51
2022/05/14 00:15:20;;;;;;;4.62;0.90;;;;;;;12.56;100.00;99132.55;1690116;83;21065;-51
2022/05/14 00:17:47;;;;;;;3.95;0.70;;;;;;;12.55;100.00;99131.69;1692205;83;21104;-51
2022/05/14 00:20:14;;;;;;;9.40;0.85;;;;;;;12.56;100.00;99129.86;1693352;83;21070;-51
2022/05/14 00:22:41;;;;;;;4.70;0.95;;;;;;;12.54;100.00;99127.73;1691968;83;22224;-51
2022/05/14 00:25:09;;;;;;;7.28;0.90;;;;;;;12.49;100.00;99126.22;1694036;83;21519;-52
2022/05/14 00:27:42;;;;;;;7.40;0.60;;;;;;;12.46;100.00;99118.80;1692328;83;21042;-51
2022/05/14 00:30:10;;;;;;;2.47;0.60;;;;;;;12.44;100.00;99122.07;1695899;83;21504;-51
2022/05/14 00:32:38;;;;;;;7.37;0.80;;;;;;;12.44;100.00;99124.77;1691139;83;21114;-51
2022/05/14 00:35:06;;;;;;;6.37;0.60;;;;;;;12.43;100.00;99120.34;1688502;83;21709;-52
2022/05/14 00:37:34;;;;;;;7.37;0.98;;;;;;;12.46;100.00;99116.97;1696589;83;20950;-51
2022/05/14 00:40:03;;;;;;;10.25;0.90;;;;;;;12.47;100.00;99117.35;1693823;83;20975;-51
2022/05/14 00:42:31;;;;;;;4.17;0.60;;;;;;;12.48;100.00;99112.82;1695777;83;20931;-51
2022/05/14 00:44:58;;;;;;;3.80;0.60;;;;;;;12.49;100.00;99103.76;1676796;83;21144;-50
2022/05/14 00:47:25;;;;;;;3.67;0.60;;;;;;;12.50;100.00;99106.33;1692470;83;22590;-51
2022/05/14 00:49:51;;;;;;;5.53;0.65;;;;;;;12.51;100.00;99108.06;1647686;86;21457;-50
2022/05/14 00:52:21;;;;;;;0.90;0.60;;;;;;;12.50;100.00;99103.63;1635113;86;21675;-50
2022/05/14 00:55:01;;;;;;;1.12;0.62;;;;;;;12.46;100.00;99112.91;1629746;86;20994;-50
2022/05/14 00:57:32;;;;;;;1.15;0.55;;;;;;;12.36;100.00;99104.16;1644200;86;21093;-52
2022/05/14 00:59:59;;;;;;;2.00;0.60;;;;;;;12.28;100.00;99104.67;1645519;86;21142;-51
2022/05/14 01:02:26;;;;;;;1.95;0.50;;;;;;;12.23;100.00;99101.42;1641508;86;21452;-52
2022/05/14 01:04:52;;;;;;;4.00;0.57;;;;;;;12.22;100.00;99091.59;1642635;85;21105;-51
2022/05/14 01:07:19;;;;;;;0.60;0.45;;;;;;;12.22;100.00;99095.64;1640670;85;21061;-51
2022/05/14 01:09:53;;;;;;;3.80;0.57;;;;;;;12.21;100.00;99097.08;1641910;86;20962;-51
2022/05/14 01:12:20;;;;;;;1.80;0.60;;;;;;;12.20;100.00;99085.42;1641356;85;21229;-51
2022/05/14 01:14:47;;;;;;;1.75;0.50;;;;;;;12.19;100.00;99088.21;1628047;86;21070;-51
2022/05/14 01:17:14;;;;;;;0.90;0.60;;;;;;;12.16;100.00;99085.73;1626971;86;21070;-51
2022/05/14 01:19:40;;;;;;;2.72;0.60;;;;;;;12.13;100.00;99080.05;1640414;86;21137;-51
2022/05/14 01:22:33;;;;;;;0.95;0.50;;;;;;;12.11;100.00;99074.75;1639881;86;20963;-51
2022/05/14 01:28:10;;;;;;;3.05;0.50;;;;;;;12.12;100.00;99080.53;1640172;86;21057;-51
2022/05/14 01:30:48;;;;;;;1.30;0.50;;;;;;;12.06;100.00;99071.50;1630813;86;21755;-51
2022/05/14 01:33:14;;;;;;;3.42;0.40;;;;;;;12.02;100.00;99073.99;1639526;86;21120;-51
2022/05/14 01:35:43;;;;;;;2.37;0.50;;;;;;;12.01;100.00;99078.13;1641049;86;21105;-51
2022/05/14 01:38:10;;;;;;;2.70;0.53;;;;;;;11.98;100.00;99081.05;1629988;86;21078;-51
2022/05/14 01:40:37;;;;;;;2.08;0.85;;;;;;;11.94;100.00;99078.15;1637344;86;21069;-51
2022/05/14 01:43:03;;;;;;;1.22;0.50;;;;;;;11.90;100.00;99072.59;1645337;86;21129;-51
2022/05/14 01:45:32;;;;;;;1.00;0.60;;;;;;;11.84;100.00;99079.22;1630608;86;21596;-52
2022/05/14 01:47:59;;;;;;;1.45;0.53;;;;;;;11.78;100.00;99075.58;1640498;86;20939;-51
2022/05/14 01:50:25;;;;;;;4.35;0.60;;;;;;;11.73;100.00;99074.98;1639668;86;21122;-52
2022/05/14 01:52:52;;;;;;;1.12;0.50;;;;;;;11.69;100.00;99073.43;1638846;86;21093;-51
2022/05/14 01:55:20;;;;;;;1.07;0.50;;;;;;;11.63;100.00;99082.78;1620824;86;21618;-52
2022/05/14 01:57:47;;;;;;;2.27;0.50;;;;;;;11.56;100.00;99077.39;1638814;86;21669;-52
2022/05/14 02:00:16;;;;;;;2.80;0.50;;;;;;;11.53;100.00;99082.09;1612195;86;21752;-51
2022/05/14 02:02:45;;;;;;;1.15;0.50;;;;;;;11.52;100.00;99076.32;1640840;86;21109;-52
2022/05/14 02:05:14;;;;;;;1.85;0.50;;;;;;;11.51;100.00;99082.67;1629593;86;21352;-52
2022/05/14 02:07:41;;;;;;;1.90;0.50;;;;;;;11.51;100.00;99083.53;1617206;86;21022;-51
2022/05/14 02:10:09;;;;;;;1.90;0.50;;;;;;;11.49;100.00;99078.72;1643022;86;21375;-52
2022/05/14 02:12:36;;;;;;;0.90;0.60;;;;;;;11.49;100.00;99083.23;1632380;86;21431;-51
2022/05/14 02:15:03;;;;;;;0.75;0.50;;;;;;;11.48;100.00;99079.70;1618413;87;21119;-51
2022/05/14 02:17:30;;;;;;;4.53;0.57;;;;;;;11.49;100.00;99076.50;1627324;87;21036;-52
2022/05/14 02:19:56;;;;;;;0.80;0.53;;;;;;;11.45;100.00;99074.98;1685861;84;20951;-51
2022/05/14 02:22:23;;;;;;;2.42;0.70;;;;;;;11.39;100.00;99080.28;1679361;84;21021;-51
2022/05/14 02:24:50;;;;;;;0.80;0.50;;;;;;;11.35;100.00;99070.16;1681339;84;20940;-52
2022/05/14 02:27:16;;;;;;;4.53;0.50;;;;;;;11.32;100.00;99070.81;1682858;84;21059;-51
2022/05/14 02:29:53;;;;;;;1.72;0.47;;;;;;;11.28;100.00;99067.94;1682174;84;21402;-51
2022/05/14 02:32:22;;;;;;;1.10;0.50;;;;;;;11.28;100.00;99067.94;1677499;84;20988;-51
2022/05/14 02:34:49;;;;;;;0.98;0.47;;;;;;;11.28;100.00;99070.16;1684237;84;20947;-51
2022/05/14 02:37:17;;;;;;;1.02;0.78;;;;;;;11.30;100.00;99066.03;1677199;84;20943;-51
2022/05/14 02:39:44;;;;;;;3.25;0.50;;;;;;;11.29;100.00;99060.25;1678295;84;20978;-51
2022/05/14 02:42:11;;;;;;;4.10;0.55;;;;;;;11.28;100.00;99062.08;1679715;84;21458;-51
2022/05/14 02:44:37;;;;;;;2.30;0.50;;;;;;;11.25;100.00;99058.20;1677839;84;20940;-51
2022/05/14 02:47:03;;;;;;;2.50;0.50;;;;;;;11.22;100.00;99064.29;1681986;84;21505;-51
2022/05/14 02:49:30;;;;;;;0.80;0.50;;;;;;;11.21;100.00;99055.81;1681727;82;21555;-51
2022/05/14 02:51:57;;;;;;;1.70;0.50;;;;;;;11.23;100.00;99059.26;1677322;84;21138;-51
2022/05/14 02:54:24;;;;;;;1.00;0.50;;;;;;;11.25;100.00;99052.83;1674737;84;20975;-51
2022/05/14 02:56:51;;;;;;;4.30;0.60;;;;;;;11.28;100.00;99055.34;1680729;84;21644;-51
2022/05/14 02:59:18;;;;;;;3.25;0.60;;;;;;;11.31;100.00;99054.29;1680621;84;21559;-51
2022/05/14 03:01:50;;;;;;;0.90;0.47;;;;;;;11.36;100.00;99049.47;1681043;84;21066;-51
2022/05/14 03:04:28;;;;;;;3.08;0.60;;;;;;;11.44;100.00;99054.38;1680783;84;21253;-51
2022/05/14 03:06:57;;;;;;;2.27;0.65;;;;;;;11.53;100.00;99053.80;1678357;84;21141;-52
2022/05/14 03:09:24;;;;;;;0.78;0.60;;;;;;;11.61;100.00;99047.44;1679024;84;21101;-52
2022/05/14 03:11:51;;;;;;;1.75;0.80;;;;;;;11.66;100.00;99050.22;1673306;84;21074;-51
2022/05/14 03:14:19;;;;;;;3.17;0.68;;;;;;;11.72;100.00;99054.38;1688232;83;21530;-51
2022/05/14 03:16:45;;;;;;;1.60;0.60;;;;;;;11.75;100.00;99049.66;1696302;83;21532;-52
2022/05/14 03:19:12;;;;;;;1.95;0.60;;;;;;;11.80;100.00;99039.08;1665369;83;22135;-51
2022/05/14 03:21:39;;;;;;;2.50;0.60;;;;;;;11.82;100.00;99039.86;1691063;83;21041;-51
2022/05/14 03:24:07;;;;;;;3.70;0.57;;;;;;;11.83;100.00;99041.08;1690753;83;21082;-52
2022/05/14 03:26:34;;;;;;;1.98;0.50;;;;;;;11.86;100.00;99043.59;1690784;83;21133;-51
2022/05/14 03:29:00;;;;;;;0.80;0.60;;;;;;;11.89;100.00;99046.58;1692052;83;21147;-51
2022/05/14 03:31:27;;;;;;;1.25;0.60;;;;;;;11.92;100.00;99049.92;1691026;83;21094;-51
2022/05/14 03:33:53;;;;;;;0.68;0.60;;;;;;;11.93;100.00;99044.92;1690019;83;21126;-51
2022/05/14 03:36:20;;;;;;;3.08;0.60;;;;;;;11.94;100.00;99048.00;1690563;83;21113;-51
2022/05/14 03:38:47;;;;;;;2.65;0.60;;;;;;;11.95;100.00;99040.78;1693193;83;21058;-51
2022/05/14 03:41:13;;;;;;;2.08;0.80;;;;;;;11.93;100.00;99042.22;1689052;83;22038;-52
2022/05/14 03:43:40;;;;;;;2.22;0.80;;;;;;;11.92;100.00;99039.14;1691795;83;21654;-51
2022/05/14 03:46:07;;;;;;;1.50;0.50;;;;;;;11.96;100.00;99047.43;1694785;83;21106;-52
2022/05/14 03:48:33;;;;;;;2.45;0.60;;;;;;;11.98;100.00;99044.16;1690951;83;21066;-52
2022/05/14 03:51:00;;;;;;;1.22;0.50;;;;;;;12.04;100.00;99050.97;1691827;83;21053;-51
2022/05/14 03:53:26;;;;;;;1.20;0.60;;;;;;;12.12;100.00;99040.06;1675704;83;22249;-52
2022/05/14 03:55:53;;;;;;;5.47;0.60;;;;;;;12.22;100.00;99034.93;1689243;83;21066;-51
2022/05/14 03:58:19;;;;;;;2.37;0.62;;;;;;;12.30;100.00;99035.28;1689874;83;21046;-52
2022/05/14 04:00:46;;;;;;;1.55;0.68;;;;;;;12.38;100.00;99036.98;1693363;83;21074;-52
2022/05/14 04:03:12;;;;;;;1.77;0.65;;;;;;;12.48;100.00;99042.64;1695018;83;21069;-51
2022/05/14 04:05:39;;;;;;;3.50;0.70;;;;;;;12.54;100.00;99033.25;1690485;83;21355;-52
2022/05/14 04:08:06;;;;;;;1.77;0.80;;;;;;;12.60;100.00;99040.44;1688505;83;21617;-52
2022/05/14 04:10:33;;;;;;;3.60;0.60;;;;;;;12.68;100.00;99034.52;1691632;83;21456;-52
2022/05/14 04:13:00;;;;;;;0.72;0.50;;;;;;;12.79;100.00;99034.18;1692566;83;21021;-52
2022/05/14 04:15:26;;;;;;;1.52;0.60;;;;;;;12.92;100.00;99036.92;1692200;83;20942;-52
2022/05/14 04:17:54;;;;;;;2.67;0.70;;;;;;;13.06;100.00;99032.77;1669630;83;22098;-51
2022/05/14 04:20:21;;;;;;;2.70;0.75;;;;;;;13.24;100.00;99034.70;1691742;83;21154;-51
2022/05/14 04:22:48;;;;;;;1.90;0.70;;;;;;;13.42;100.00;99027.13;1696277;83;21089;-51
2022/05/14 04:25:16;;;;;;;3.52;0.80;;;;;;;13.59;100.00;99020.89;1694473;83;21464;-51
2022/05/14 04:27:44;;;;;;;1.72;0.70;;;;;;;13.77;100.00;99024.59;1689463;83;21488;-51
2022/05/14 04:30:13;;;;;;;2.75;1.00;;;;;;;13.91;100.00;99017.19;1693130;83;21689;-51
2022/05/14 04:32:40;;;;;;;3.40;0.70;;;;;;;14.04;100.00;99009.02;1692720;83;21340;-51
2022/05/14 04:35:08;;;;;;;1.55;0.80;;;;;;;14.16;100.00;99010.83;1694923;83;21097;-51
2022/05/14 04:37:35;;;;;;;3.33;1.27;;;;;;;14.28;100.00;99007.22;1692198;83;21065;-51
2022/05/14 04:40:01;;;;;;;3.37;0.50;;;;;;;14.39;100.00;99003.71;1689187;83;21069;-51
2022/05/14 04:42:28;;;;;;;0.95;0.57;;;;;;;14.51;100.00;99009.56;1668936;83;21153;-51
2022/05/14 04:44:56;;;;;;;4.22;0.98;;;;;;;14.64;100.00;99014.89;1693791;83;20998;-51
2022/05/14 04:47:22;;;;;;;3.42;0.70;;;;;;;14.76;100.00;99012.61;1691692;83;21065;-51
2022/05/14 04:49:49;;;;;;;2.47;0.53;;;;;;;14.86;100.00;99029.03;1691066;83;20983;-52
2022/05/14 04:52:16;;;;;;;2.17;0.70;;;;;;;14.99;100.00;99029.79;1693600;83;20911;-52
2022/05/14 04:54:43;;;;;;;3.95;0.70;;;;;;;15.06;100.00;99030.55;1689261;83;21094;-51
2022/05/14 04:57:10;;;;;;;3.58;0.60;;;;;;;15.13;100.00;99026.40;1692468;83;21349;-53
2022/05/14 04:59:36;;;;;;;2.40;0.70;;;;;;;15.18;100.00;99032.80;1692252;83;21595;-53
2022/05/14 05:04:50;;;;;;;2.72;0.70;;;;;;;15.21;100.00;99038.48;1681380;83;20899;-53
2022/05/14 05:07:18;;;;;;;2.02;0.70;;;;;;;15.21;100.00;99053.39;1690319;83;21066;-52
2022/05/14 05:09:47;;;;;;;3.30;0.60;;;;;;;15.19;100.00;99056.22;1677946;83;21382;-52
2022/05/14 05:12:13;;;;;;;5.35;0.90;;;;;;;15.18;100.00;99054.98;1693883;83;20939;-53
2022/05/14 05:14:41;;;;;;;2.47;0.70;;;;;;;15.16;100.00;99049.67;1694605;83;21002;-53
2022/05/14 05:17:07;;;;;;;2.92;0.70;;;;;;;15.20;100.00;99051.17;1691600;82;21073;-53
2022/05/14 05:19:34;;;;;;;3.10;0.60;;;;;;;15.20;100.00;99040.33;1693634;83;21812;-54
2022/05/14 05:22:01;;;;;;;4.15;0.88;;;;;;;15.19;100.00;99035.89;1693213;83;21431;-53
2022/05/14 05:24:27;;;;;;;3.90;0.78;;;;;;;15.21;100.00;99041.20;1700207;83;20919;-53
2022/05/14 05:26:55;;;;;;;2.58;0.70;;;;;;;15.21;100.00;99038.00;1695726;83;20978;-54
2022/05/14 05:29:22;;;;;;;2.27;0.80;;;;;;;15.21;100.00;99034.42;1688789;83;21231;-52
2022/05/14 05:31:48;;;;;;;5.35;0.80;;;;;;;15.21;100.00;99033.06;1691185;83;21316;-52
2022/05/14 05:34:14;;;;;;;2.45;0.60;;;;;;;15.20;100.00;99040.82;1696839;83;20903;-52
2022/05/14 05:36:41;;;;;;;2.08;0.70;;;;;;;15.20;100.00;99042.17;1695624;83;21565;-54
2022/05/14 05:39:07;;;;;;;1.00;0.70;;;;;;;15.21;100.00;99031.70;1691834;83;21065;-52
2022/05/14 05:41:34;;;;;;;2.05;0.72;;;;;;;15.21;100.00;99036.64;1692430;83;21061;-52
2022/05/14 05:44:01;;;;;;;2.83;0.70;;;;;;;15.22;100.00;99037.50;1699719;83;21297;-53
2022/05/14 05:46:27;;;;;;;7.53;0.60;;;;;;;15.23;100.00;99043.27;1699869;83;20990;-52
2022/05/14 05:48:53;;;;;;;1.10;0.60;;;;;;;15.24;100.00;99032.31;1700309;83;20934;-52
2022/05/14 05:51:20;;;;;;;2.92;0.80;;;;;;;15.28;100.00;99031.59;1689658;83;21324;-51
2022/05/14 05:56:47;;;;;;;;;;;;;;;15.33;100.00;99032.08;1698417;82;21131;-52
2022/05/14 05:59:15;;;;;;;2.40;0.62;;;;;;;15.36;100.00;99034.06;1691327;83;20506;-52
2022/05/14 06:01:42;;;;;;;0.88;0.60;;;;;;;15.37;100.00;99043.07;1696513;83;21519;-52
2022/05/14 06:04:09;;;;;;;4.75;1.20;;;;;;;15.38;100.00;99038.02;1690707;82;22103;-52
2022/05/14 06:06:37;;;;;;;4.25;1.25;;;;;;;15.40;100.00;99036.03;1695113;83;20927;-52
2022/05/14 06:09:03;;;;;;;3.87;0.65;;;;;;;15.41;100.00;99037.76;1691686;83;21340;-53
2022/05/14 06:11:31;;;;;;;1.40;0.80;;;;;;;15.42;100.00;99033.58;1688724;83;21447;-53
2022/05/14 06:13:58;;;;;;;4.45;0.90;;;;;;;15.42;100.00;99034.93;1691495;83;21521;-53
2022/05/14 06:16:25;;;;;;;4.03;0.68;;;;;;;15.43;100.00;99034.44;1693528;83;21084;-52
2022/05/14 06:18:52;;;;;;;3.20;0.62;;;;;;;15.42;100.00;99037.64;1692979;83;21058;-51
2022/05/14 06:21:18;;;;;;;4.70;0.70;;;;;;;15.44;100.00;99038.88;1693634;83;21858;-52
2022/05/14 06:23:45;;;;;;;1.60;0.72;;;;;;;15.47;100.00;99030.02;1697537;83;21065;-52
2022/05/14 06:26:11;;;;;;;4.00;0.70;;;;;;;15.52;100.00;99031.00;1692783;83;21089;-51
2022/05/14 06:28:38;;;;;;;1.10;0.80;;;;;;;15.56;100.00;99033.02;1689313;83;21567;-53
2022/05/14 06:31:05;;;;;;;3.17;0.90;;;;;;;15.61;100.00;99037.08;1688084;83;21097;-52
2022/05/14 06:33:32;;;;;;;2.75;0.80;;;;;;;15.65;100.00;99035.83;1690827;83;21780;-53
2022/05/14 06:35:59;;;;;;;1.57;0.70;;;;;;;15.68;100.00;99038.31;1690371;83;21098;-52
2022/05/14 06:38:26;;;;;;;4.28;0.70;;;;;;;15.73;100.00;99038.82;1688596;83;21101;-52
2022/05/14 06:40:54;;;;;;;0.90;0.80;;;;;;;15.77;100.00;99047.56;1689089;83;21069;-52
2022/05/14 06:43:20;;;;;;;4.22;0.80;;;;;;;15.81;100.00;99043.13;1692266;83;21073;-53
2022/05/14 06:45:46;;;;;;;2.35;0.80;;;;;;;15.88;100.00;99043.00;1693346;83;21729;-53
2022/05/14 06:48:13;;;;;;;4.62;0.70;;;;;;;15.94;100.00;99050.27;1692861;83;21176;-52
2022/05/14 06:50:43;;;;;;;1.60;0.90;;;;;;;15.97;100.00;99054.97;1692229;83;20927;-52
2022/05/14 06:53:10;;;;;;;2.05;0.80;;;;;;;16.03;100.00;99060.38;1691500;83;21029;-53
2022/05/14 06:55:38;;;;;;;1.42;0.98;;;;;;;16.08;100.00;99067.64;1690830;83;21077;-52
2022/05/14 06:58:05;;;;;;;1.87;0.70;;;;;;;16.12;100.00;99068.64;1695470;83;21078;-52
2022/05/14 07:00:31;;;;;;;4.40;0.70;;;;;;;16.16;100.00;99066.55;1688449;83;21050;-52
2022/05/14 07:06:37;;;;;;;1.47;0.68;;;;;;;16.21;100.00;99069.24;1693324;83;21168;-52
2022/05/14 07:08:11;;;;;;;4.17;1.35;;;;;;;16.32;100.00;99072.94;1691682;83;21041;-52
2022/05/14 07:10:38;;;;;;;2.95;0.72;;;;;;;16.38;100.00;99074.64;1692140;83;21113;-52
2022/05/14 07:13:06;;;;;;;2.87;0.90;;;;;;;16.46;100.00;99077.59;1690420;83;21313;-53
2022/05/14 07:15:33;;;;;;;6.10;0.90;;;;;;;16.50;100.00;99075.49;1682746;83;21338;-53
2022/05/14 07:18:00;;;;;;;3.12;0.80;;;;;;;16.53;100.00;99082.88;1679797;83;20999;-52
2022/05/14 07:20:28;;;;;;;1.32;0.80;;;;;;;16.57;100.00;99079.42;1677692;84;21826;-53
2022/05/14 07:22:55;;;;;;;6.80;1.53;;;;;;;16.61;100.00;99086.34;1604148;84;985127;-53
2022/05/14 19:44:31;;;;;;;1.20;0.40;;;;;;;15.43;100.00;99297.50;1790316;78;22657;-51
2022/05/14 19:46:59;;;;;;;1.10;0.50;;;;;;;15.11;100.00;99307.56;1772021;80;20981;-51
2022/05/14 19:49:26;;;;;;;3.80;0.60;;;;;;;14.87;100.00;99305.78;1771214;80;21321;-51
2022/05/14 19:51:53;;;;;;;1.90;0.53;;;;;;;14.66;100.00;99304.98;1774560;79;21263;-51
2022/05/14 19:54:19;;;;;;;2.30;0.65;;;;;;;14.47;100.00;99308.63;1770860;80;21859;-51
2022/05/14 19:56:46;;;;;;;0.95;0.50;;;;;;;14.30;100.00;99310.27;1777264;80;20914;-51
2022/05/14 19:59:13;;;;;;;1.12;0.55;;;;;;;14.13;100.00;99309.23;1703754;82;20958;-51
2022/05/14 20:01:39;;;;;;;2.62;0.60;;;;;;;13.99;100.00;99311.56;1705831;82;21453;-52
2022/05/14 20:04:10;;;;;;;1.65;0.60;;;;;;;13.85;100.00;99309.81;1712291;83;20899;-50
2022/05/14 20:06:34;;;;;;;3.02;0.60;;;;;;;13.73;100.00;99308.42;1714441;81;20898;-51
2022/05/14 20:09:00;;;;;;;1.22;0.57;;;;;;;13.61;100.00;99315.52;1717321;81;20997;-51
2022/05/14 20:11:27;;;;;;;1.10;0.65;;;;;;;13.45;100.00;99313.46;1718094;83;20968;-51
2022/05/14 20:13:54;;;;;;;0.78;0.50;;;;;;;13.30;100.00;99313.13;1709987;81;21350;-51
2022/05/14 20:21:50;;;;;;;4.03;0.60;;;;;;;12.92;100.00;99323.73;1709544;83;21376;-51
2022/05/14 20:24:16;;;;;;;0.78;0.57;;;;;;;12.78;100.00;99324.12;1710709;83;21428;-51
2022/05/14 20:26:42;;;;;;;5.22;0.62;;;;;;;12.66;100.00;99328.09;1715163;81;21105;-51
2022/05/14 20:29:09;;;;;;;2.92;0.60;;;;;;;12.54;100.00;99328.38;1703436;82;21117;-51
2022/05/14 20:31:36;;;;;;;1.77;0.70;;;;;;;12.42;100.00;99338.09;1715989;82;21124;-50
2022/05/14 20:34:03;;;;;;;1.92;0.70;;;;;;;12.31;100.00;99334.34;1715805;82;21106;-51
2022/05/14 20:36:30;;;;;;;3.58;0.90;;;;;;;12.23;100.00;99337.52;1717027;82;21420;-51
2022/05/14 20:38:56;;;;;;;3.17;0.90;;;;;;;12.19;100.00;99348.10;1715628;82;21661;-51
2022/05/14 20:41:22;;;;;;;1.27;0.72;;;;;;;12.15;100.00;99344.35;1702531;82;21104;-51
2022/05/14 20:43:50;;;;;;;3.30;0.82;;;;;;;12.08;100.00;99343.83;1712276;83;21047;-51
2022/05/14 20:46:17;;;;;;;3.27;0.80;;;;;;;12.02;100.00;99347.78;1721454;81;21054;-51
2022/05/14 20:48:43;;;;;;;3.80;0.70;;;;;;;11.98;100.00;99350.30;1682449;83;21152;-51
2022/05/14 20:51:10;;;;;;;2.27;0.70;;;;;;;11.95;100.00;99347.77;1759375;79;21025;-51
2022/05/14 20:53:37;;;;;;;5.67;0.70;;;;;;;11.94;100.00;99346.03;1758180;80;21046;-51
2022/05/14 20:56:04;;;;;;;1.47;0.57;;;;;;;11.94;100.00;99346.03;1759268;80;21025;-51
2022/05/14 20:58:30;;;;;;;2.85;0.60;;;;;;;11.96;100.00;99351.33;1755982;80;21081;-51
2022/05/14 21:00:57;;;;;;;1.47;0.60;;;;;;;11.96;100.00;99337.37;1756441;80;21036;-51
2022/05/14 21:03:24;;;;;;;1.37;0.50;;;;;;;11.96;100.00;99344.11;1755588;80;21120;-51
2022/05/14 21:05:51;;;;;;;3.40;0.60;;;;;;;11.97;100.00;99341.80;1760770;79;21350;-51
2022/05/14 21:08:19;;;;;;;3.98;0.70;;;;;;;11.99;100.00;99344.42;1759701;79;21214;-51
2022/05/14 21:10:46;;;;;;;1.67;0.60;;;;;;;11.99;100.00;99349.81;1764859;80;21038;-51
2022/05/14 21:13:12;;;;;;;1.77;0.50;;;;;;;11.99;100.00;99350.66;1761374;80;20865;-51
2022/05/14 21:15:40;;;;;;;2.30;0.70;;;;;;;12.00;100.00;99348.82;1759116;79;21625;-52
2022/05/14 21:18:07;;;;;;;5.45;0.78;;;;;;;12.01;100.00;99355.48;1760779;81;20973;-51
2022/05/14 21:20:33;;;;;;;3.70;0.60;;;;;;;12.02;100.00;99354.52;1761467;80;21073;-52
2022/05/14 21:22:59;;;;;;;1.50;0.65;;;;;;;12.02;100.00;99357.22;1755713;80;21034;-51
2022/05/14 21:25:27;;;;;;;2.40;0.62;;;;;;;12.02;100.00;99350.48;1759793;80;21088;-51
2022/05/14 21:27:55;;;;;;;4.42;0.85;;;;;;;12.01;100.00;99346.04;1753873;79;21440;-51
2022/05/14 21:30:21;;;;;;;1.30;0.62;;;;;;;12.01;100.00;99353.27;1751027;80;21038;-51
2022/05/14 21:32:49;;;;;;;3.15;0.62;;;;;;;11.98;100.00;99352.98;1696140;83;21737;-51
2022/05/14 21:38:00;;;;;;;3.20;0.70;;;;;;;11.95;100.00;99358.55;1710823;81;21184;-51
2022/05/14 21:40:30;;;;;;;1.65;0.70;;;;;;;11.92;100.00;99362.77;1710141;83;21240;-52
2022/05/14 21:43:06;;;;;;;3.25;0.70;;;;;;;11.91;100.00;99360.20;1760989;80;21345;-51
2022/05/14 21:45:39;;;;;;;1.22;0.50;;;;;;;11.87;100.00;99366.23;1750466;80;21729;-51
2022/05/14 21:48:06;;;;;;;1.42;0.40;;;;;;;11.85;100.00;99369.98;1751965;79;21537;-52
2022/05/14 21:50:33;;;;;;;4.37;0.60;;;;;;;11.83;100.00;99371.89;1754069;81;21453;-52
2022/05/14 21:53:03;;;;;;;1.85;0.40;;;;;;;11.81;100.00;99372.01;1746474;81;21078;-52
2022/05/14 21:55:42;;;;;;;3.92;0.60;;;;;;;11.79;100.00;99371.22;1750535;80;20976;-51
2022/05/14 21:58:09;;;;;;;1.92;0.60;;;;;;;11.78;100.00;99370.83;1748618;81;21105;-51
2022/05/14 22:00:43;;;;;;;1.35;0.50;;;;;;;11.77;100.00;99378.52;1746711;79;21101;-53
2022/05/14 22:03:13;;;;;;;2.02;0.60;;;;;;;11.78;100.00;99376.22;1686938;83;21217;-51
2022/05/14 22:05:42;;;;;;;1.12;0.50;;;;;;;11.75;100.00;99375.91;1756073;81;21288;-53
2022/05/14 22:08:09;;;;;;;1.42;0.40;;;;;;;11.75;100.00;99375.04;1752985;80;21035;-52
2022/05/14 22:10:36;;;;;;;3.47;0.60;;;;;;;11.74;100.00;99365.17;1747347;81;21448;-51
2022/05/14 22:13:06;;;;;;;5.75;0.50;;;;;;;11.73;100.00;99371.08;1688183;83;21599;-51
2022/05/14 22:15:32;;;;;;;2.22;0.50;;;;;;;11.72;100.00;99359.91;1750318;80;21211;-51
2022/05/14 22:18:00;;;;;;;0.90;0.50;;;;;;;11.71;100.00;99366.25;1749467;81;21157;-51
2022/05/14 22:20:27;;;;;;;3.50;0.60;;;;;;;11.68;100.00;99361.50;1750145;80;20919;-51
2022/05/14 22:22:54;;;;;;;3.30;0.53;;;;;;;11.64;100.00;99364.88;1753163;80;20888;-53
2022/05/14 22:25:22;;;;;;;1.65;0.50;;;;;;;11.61;100.00;99367.74;1756685;81;21366;-52
2022/05/14 22:27:50;;;;;;;3.02;0.50;;;;;;;11.56;100.00;99365.80;1751532;81;20966;-52
2022/05/14 22:30:17;;;;;;;3.60;0.55;;;;;;;11.53;100.00;99370.50;1745805;80;21710;-52
2022/05/14 22:32:43;;;;;;;2.47;0.60;;;;;;;11.49;100.00;99369.79;1746305;80;21480;-51
2022/05/14 22:35:10;;;;;;;2.70;0.40;;;;;;;11.47;100.00;99366.81;1691781;84;21481;-52
2022/05/14 22:37:37;;;;;;;3.77;0.40;;;;;;;11.43;100.00;99359.38;1712010;82;21332;-52
2022/05/14 22:42:58;;;;;;;2.22;0.33;;;;;;;11.40;100.00;99362.74;1701910;82;21269;-51
2022/05/14 22:45:25;;;;;;;0.80;0.30;;;;;;;11.35;100.00;99358.47;1704961;83;21399;-52
2022/05/14 22:47:51;;;;;;;5.17;0.40;;;;;;;11.34;100.00;99362.12;1750049;79;20911;-52
2022/05/14 22:50:17;;;;;;;3.08;0.40;;;;;;;11.35;100.00;99361.16;1753635;81;20863;-52
2022/05/14 22:52:44;;;;;;;5.42;0.40;;;;;;;11.37;100.00;99355.70;1747920;81;20887;-52
2022/05/14 22:55:11;;;;;;;2.90;0.40;;;;;;;11.39;100.00;99359.18;1752502;80;21223;-52
2022/05/14 22:57:37;;;;;;;2.20;0.40;;;;;;;11.42;100.00;99353.59;1753226;79;20935;-52
2022/05/14 23:00:07;;;;;;;2.50;0.30;;;;;;;11.43;100.00;99356.68;1749206;80;20903;-53
2022/05/14 23:02:35;;;;;;;1.37;0.30;;;;;;;11.43;100.00;99359.85;1746108;81;20967;-51
2022/05/14 23:05:04;;;;;;;2.90;0.57;;;;;;;11.40;100.00;99360.89;1749565;81;20931;-51
2022/05/14 23:07:31;;;;;;;1.12;0.40;;;;;;;11.38;100.00;99367.73;1750812;79;21485;-51
2022/05/14 23:09:57;;;;;;;0.70;0.45;;;;;;;11.36;100.00;99362.91;1756859;80;20899;-52
2022/05/14 23:12:24;;;;;;;1.00;0.40;;;;;;;11.33;100.00;99364.42;1746828;81;20864;-51
2022/05/14 23:14:50;;;;;;;2.22;0.42;;;;;;;11.30;100.00;99371.35;1712647;82;20967;-52
2022/05/14 23:17:17;;;;;;;0.78;0.30;;;;;;;11.25;100.00;99366.69;1752215;80;20880;-51
2022/05/14 23:19:43;;;;;;;5.40;0.50;;;;;;;11.21;100.00;99372.34;1751012;79;21098;-51
2022/05/14 23:22:09;;;;;;;1.45;0.60;;;;;;;11.17;100.00;99374.34;1746173;81;20912;-51
2022/05/14 23:24:35;;;;;;;4.65;0.68;;;;;;;11.15;100.00;99374.89;1757615;81;20869;-54
2022/05/14 23:27:02;;;;;;;2.20;0.50;;;;;;;11.12;100.00;99379.12;1753711;81;21308;-52
2022/05/14 23:29:28;;;;;;;2.25;0.40;;;;;;;11.07;100.00;99373.11;1752741;79;20867;-51
2022/05/14 23:31:55;;;;;;;1.10;0.40;;;;;;;11.03;100.00;99377.42;1746180;80;21901;-51
2022/05/14 23:34:21;;;;;;;0.85;0.50;;;;;;;10.99;100.00;99378.06;1751755;81;21476;-52
2022/05/14 23:36:47;;;;;;;1.75;0.40;;;;;;;10.95;100.00;99376.50;1751855;81;21113;-51
2022/05/14 23:39:14;;;;;;;0.80;0.30;;;;;;;10.93;100.00;99381.10;1751528;79;21058;-51
2022/05/14 23:41:41;;;;;;;1.20;0.40;;;;;;;10.91;100.00;99379.83;1748631;81;21589;-52
2022/05/14 23:44:09;;;;;;;1.87;0.40;;;;;;;10.89;100.00;99386.25;1750135;81;21120;-52
2022/05/14 23:46:37;;;;;;;2.40;0.60;;;;;;;10.87;100.00;99382.32;1758718;81;21678;-51
2022/05/14 23:49:04;;;;;;;1.98;0.33;;;;;;;10.87;100.00;99382.80;1758712;81;22248;-51
2022/05/14 23:51:30;;;;;;;1.57;0.40;;;;;;;10.87;100.00;99380.97;1755555;79;21443;-51
2022/05/14 23:53:57;;;;;;;10.25;0.50;;;;;;;10.87;100.00;99385.02;1758573;80;21052;-51
2022/05/14 23:56:23;;;;;;;1.17;0.85;;;;;;;10.88;100.00;99385.41;1756924;81;22154;-52
